Time;durP1;ratioP1;P1;durP2;ratioP2;P2;SDS_P1;SDS_P2;PMS_P1;PMS_P2;Temp;Humidity;BMP_temperature;BMP_pressure;BME280_temperature;BME280_humidity;BME280_pressure;Samples;Min_cycle;Max_cycle;Signal;HPM_P1;HPM_P2
2021/12/06 00:01:06;;;;;;;;;;;;;;;2.11;81.37;97612.69;1544562;91;25507;-65
2021/12/06 00:03:35;;;;;;;;;;;;;;;2.09;81.54;97608.64;1544499;91;29603;-65
2021/12/06 00:06:02;;;;;;;;;;;;;;;2.06;81.48;97607.86;1544800;91;25974;-65
2021/12/06 00:08:28;;;;;;;;;;;;;;;2.04;81.81;97609.48;1544223;93;25699;-65
2021/12/06 00:10:54;;;;;;;;;;;;;;;2.05;81.69;97607.60;1544193;93;25716;-65
2021/12/06 00:13:22;;;;;;;;;;;;;;;1.99;81.81;97605.50;1544337;91;25606;-65
2021/12/06 00:15:50;;;;;;;;;;;;;;;1.99;82.03;97602.80;1544177;91;26051;-65
2021/12/06 00:18:17;;;;;;;;;;;;;;;1.94;82.09;97613.09;1544464;91;25708;-65
2021/12/06 00:20:45;;;;;;;;;;;;;;;1.91;82.28;97608.26;1544258;91;25779;-65
2021/12/06 00:23:11;;;;;;;;;;;;;;;1.86;82.18;97604.23;1544208;93;25823;-65
2021/12/06 00:25:37;;;;;;;;;;;;;;;1.86;82.36;97603.70;1544311;93;25718;-65
2021/12/06 00:28:04;;;;;;;;;;;;;;;1.90;82.30;97602.58;1544339;91;27492;-64
2021/12/06 00:30:30;;;;;;;;;;;;;;;1.98;82.37;97598.45;1544192;91;25719;-64
2021/12/06 00:32:56;;;;;;;;;;;;;;;2.00;82.32;97602.52;1544428;93;25628;-65
2021/12/06 00:35:24;;;;;;;;;;;;;;;2.00;82.10;97604.39;1544290;91;25776;-65
2021/12/06 00:37:57;;;;;;;;;;;;;;;2.02;81.99;97614.92;1545122;91;25703;-65
2021/12/06 00:40:31;;;;;;;;;;;;;;;2.02;81.82;97618.44;1556257;92;26008;-65
2021/12/06 00:42:57;;;;;;;;;;;;;;;2.00;82.05;97618.72;1556451;92;25676;-65
2021/12/06 00:45:25;;;;;;;;;;;;;;;1.99;81.99;97619.01;1556372;92;25650;-65
2021/12/06 00:47:52;;;;;;;;;;;;;;;1.95;82.45;97624.69;1556664;92;25698;-65
2021/12/06 00:50:19;;;;;;;;;;;;;;;1.98;82.40;97622.78;1556452;92;25726;-65
2021/12/06 00:52:47;;;;;;;;;;;;;;;2.04;82.66;97628.41;1556765;92;28826;-65
2021/12/06 00:55:14;;;;;;;;;;;;;;;2.08;82.64;97625.95;1556791;92;25693;-65
2021/12/06 00:57:41;;;;;;;;;;;;;;;2.06;82.23;97634.34;1556703;92;25636;-65
2021/12/06 01:00:11;;;;;;;;;;;;;;;2.06;82.26;97637.05;1556702;92;26062;-64
2021/12/06 01:02:37;;;;;;;;;;;;;;;2.08;82.41;97639.47;1556950;92;25691;-65
2021/12/06 01:05:05;;;;;;;;;;;;;;;2.09;82.24;97641.89;1556417;92;27456;-64
2021/12/06 01:07:31;;;;;;;;;;;;;;;2.11;82.17;97643.77;1556682;92;25495;-65
2021/12/06 01:09:57;;;;;;;;;;;;;;;2.13;82.34;97644.28;1556515;92;25711;-65
2021/12/06 01:12:23;;;;;;;;;;;;;;;2.13;82.09;97640.79;1557028;92;25760;-64
2021/12/06 01:14:50;;;;;;;;;;;;;;;2.13;82.08;97642.14;1556511;92;25426;-65
2021/12/06 01:17:16;;;;;;;;;;;;;;;2.20;82.63;97648.02;1556489;92;27454;-65
2021/12/06 01:19:42;;;;;;;;;;;;;;;2.28;82.59;97658.77;1556834;92;25722;-65
2021/12/06 01:22:23;;;;;;;;;;;;;;;2.35;82.39;97658.42;1556759;92;25712;-65
2021/12/06 01:24:58;;;;;;;;;;;;;;;2.35;82.22;97649.77;1557545;89;25514;-65
2021/12/06 01:32:49;;;;;;;;;;;;;;;2.35;82.24;97648.96;1556650;91;25802;-65
2021/12/06 01:40:21;;;;;;;;;;;;;;;2.20;81.99;97618.82;1537334;92;25538;-65
2021/12/06 01:42:48;;;;;;;;;;;;;;;2.17;82.19;97625.61;1536438;93;25955;-63
2021/12/06 01:45:14;;;;;;;;;;;;;;;2.13;82.14;97623.22;1536446;93;25648;-63
2021/12/06 01:47:41;;;;;;;;;;;;;;;2.18;82.50;97623.16;1536557;93;25654;-62
2021/12/06 01:50:13;;;;;;;;;;;;;;;2.21;82.41;97634.75;1536284;93;25818;-63
2021/12/06 01:52:42;;;;;;;;;;;;;;;2.23;82.44;97637.99;1536572;93;25524;-64
2021/12/06 01:55:11;;;;;;;;;;;;;;;2.27;82.35;97633.38;1535799;91;27437;-63
2021/12/06 01:57:38;;;;;;;;;;;;;;;2.27;82.31;97636.07;1536156;93;25485;-64
2021/12/06 02:00:14;;;;;;;;;;;;;;;2.28;82.40;97634.44;1536236;93;25653;-64
2021/12/06 02:02:40;;;;;;;;;;;;;;;2.23;82.41;97637.17;1536521;93;25697;-64
2021/12/06 02:05:07;;;;;;;;;;;;;;;2.18;82.42;97634.50;1536305;93;25441;-64
2021/12/06 02:07:33;;;;;;;;;;;;;;;2.13;82.50;97646.20;1536238;93;27436;-64
2021/12/06 02:09:59;;;;;;;;;;;;;;;2.05;82.55;97649.48;1536115;93;25689;-64
2021/12/06 02:12:29;;;;;;;;;;;;;;;1.98;82.67;97641.16;1536299;93;25579;-64
2021/12/06 02:15:19;;;;;;;;;;;;;;;1.93;82.57;97635.00;1536282;93;25726;-64
2021/12/06 02:17:37;;;;;;;;;;;;;;;1.90;82.75;97633.64;1533796;93;25480;-64
2021/12/06 02:20:09;;;;;;;;;;;;;;;1.88;82.74;97631.78;1535799;93;26036;-64
2021/12/06 02:22:38;;;;;;;;;;;;;;;1.84;82.59;97632.88;1536354;93;25944;-63
2021/12/06 02:25:07;;;;;;;;;;;;;;;1.84;82.74;97632.09;1536465;93;25626;-64
2021/12/06 02:27:33;;;;;;;;;;;;;;;1.84;82.66;97640.20;1536393;93;26576;-64
2021/12/06 02:30:01;;;;;;;;;;;;;;;1.86;82.50;97640.17;1536354;93;25702;-64
2021/12/06 02:32:27;;;;;;;;;;;;;;;1.91;82.55;97647.97;1536283;93;26788;-64
2021/12/06 02:34:56;;;;;;;;;;;;;;;1.97;82.63;97653.06;1536110;93;25736;-63
2021/12/06 02:37:27;;;;;;;;;;;;;;;1.99;82.29;97656.27;1528425;93;25700;-64
2021/12/06 02:39:54;;;;;;;;;;;;;;;2.00;82.36;97670.60;1526097;93;26534;-64
2021/12/06 02:42:20;;;;;;;;;;;;;;;1.99;82.64;97671.14;1539843;92;25630;-64
2021/12/06 02:44:48;;;;;;;;;;;;;;;2.00;82.52;97674.66;1540089;93;27430;-64
2021/12/06 02:47:15;;;;;;;;;;;;;;;1.97;82.40;97679.27;1539706;93;25687;-64
2021/12/06 02:49:42;;;;;;;;;;;;;;;1.93;82.49;97678.23;1540053;92;25673;-63
2021/12/06 02:52:09;;;;;;;;;;;;;;;1.85;82.65;97675.05;1539714;93;27842;-64
2021/12/06 02:54:35;;;;;;;;;;;;;;;1.82;82.82;97675.60;1539942;92;25681;-63
2021/12/06 02:59:41;;;;;;;;;;;;;;;1.80;82.87;97670.20;1539645;92;25813;-63
2021/12/06 03:02:10;;;;;;;;;;;;;;;1.81;83.07;97665.08;1539784;92;25712;-63
2021/12/06 03:04:37;;;;;;;;;;;;;;;1.80;82.85;97660.20;1538832;93;27951;-63
2021/12/06 03:07:05;;;;;;;;;;;;;;;1.81;82.95;97661.02;1539807;93;25632;-64
2021/12/06 03:09:35;;;;;;;;;;;;;;;1.85;82.85;97664.77;1539937;93;27461;-64
2021/12/06 03:12:04;;;;;;;;;;;;;;;1.87;82.81;97653.94;1539798;92;25522;-64
2021/12/06 03:14:37;;;;;;;;;;;;;;;1.88;82.71;97652.05;1540192;92;25518;-64
2021/12/06 03:17:06;;;;;;;;;;;;;;;1.83;82.69;97655.59;1539695;92;25803;-64
2021/12/06 03:19:33;;;;;;;;;;;;;;;1.78;82.73;97654.83;1539982;93;25546;-64
2021/12/06 03:21:59;;;;;;;;;;;;;;;1.73;82.80;97647.00;1540187;93;27490;-64
2021/12/06 03:24:25;;;;;;;;;;;;;;;1.71;82.75;97649.73;1540053;93;25725;-64
2021/12/06 03:26:53;;;;;;;;;;;;;;;1.66;82.91;97652.45;1539694;92;25700;-64
2021/12/06 03:29:20;;;;;;;;;;;;;;;1.62;82.96;97644.91;1539944;93;26605;-64
2021/12/06 03:31:47;;;;;;;;;;;;;;;1.62;82.86;97650.31;1539879;92;25597;-64
2021/12/06 03:34:15;;;;;;;;;;;;;;;1.60;82.83;97653.03;1539677;93;27627;-64
2021/12/06 03:36:41;;;;;;;;;;;;;;;1.57;82.65;97649.54;1539697;93;27312;-64
2021/12/06 03:39:10;;;;;;;;;;;;;;;1.60;82.77;97655.20;1539891;92;25747;-64
2021/12/06 03:41:36;;;;;;;;;;;;;;;1.59;82.49;97659.53;1539032;93;25973;-64
2021/12/06 03:44:03;;;;;;;;;;;;;;;1.59;82.50;97666.28;1539988;93;25632;-64
2021/12/06 03:46:32;;;;;;;;;;;;;;;1.55;82.51;97662.53;1540008;93;27600;-64
2021/12/06 03:48:58;;;;;;;;;;;;;;;1.54;82.54;97669.81;1539603;92;25706;-64
2021/12/06 03:51:25;;;;;;;;;;;;;;;1.48;82.59;97671.74;1539679;93;25655;-64
2021/12/06 03:53:52;;;;;;;;;;;;;;;1.50;82.66;97676.87;1539732;92;25786;-64
2021/12/06 03:56:18;;;;;;;;;;;;;;;1.52;82.65;97671.19;1539978;93;25668;-64
2021/12/06 03:58:45;;;;;;;;;;;;;;;1.47;82.35;97675.51;1539795;92;27503;-63
2021/12/06 04:01:12;;;;;;;;;;;;;;;1.45;82.53;97687.68;1539674;92;25719;-64
2021/12/06 04:03:38;;;;;;;;;;;;;;;1.37;82.50;97682.31;1539905;93;25648;-63
2021/12/06 04:06:06;;;;;;;;;;;;;;;1.34;82.62;97691.78;1540114;93;26841;-63
2021/12/06 04:08:32;;;;;;;;;;;;;;;1.31;82.67;97701.78;1540000;92;25717;-64
2021/12/06 04:10:58;;;;;;;;;;;;;;;1.26;82.78;97700.45;1539804;93;27422;-63
2021/12/06 04:13:25;;;;;;;;;;;;;;;1.24;82.76;97707.47;1539977;93;25763;-63
2021/12/06 04:15:51;;;;;;;;;;;;;;;1.21;82.70;97700.48;1539983;93;25698;-63
2021/12/06 04:18:18;;;;;;;;;;;;;;;1.20;82.84;97704.24;1540142;93;26314;-63
2021/12/06 04:20:44;;;;;;;;;;;;;;;1.21;83.02;97704.53;1539889;93;25732;-64
2021/12/06 04:23:12;;;;;;;;;;;;;;;1.27;82.93;97699.91;1539837;92;27558;-64
2021/12/06 04:25:39;;;;;;;;;;;;;;;1.20;82.98;97692.09;1539786;93;25485;-64
2021/12/06 04:28:07;;;;;;;;;;;;;;;1.16;83.15;97693.74;1540023;93;25723;-64
2021/12/06 04:30:36;;;;;;;;;;;;;;;1.11;83.22;97694.03;1539921;92;27153;-64
2021/12/06 04:33:02;;;;;;;;;;;;;;;1.07;83.35;97695.65;1540111;92;25883;-64
2021/12/06 04:35:29;;;;;;;;;;;;;;;1.05;83.47;97693.78;1540205;93;27748;-64
2021/12/06 04:37:55;;;;;;;;;;;;;;;1.00;83.33;97687.86;1539695;92;25496;-64
2021/12/06 04:40:21;;;;;;;;;;;;;;;0.98;83.43;97690.58;1539759;93;25649;-64
2021/12/06 04:42:48;;;;;;;;;;;;;;;0.99;83.48;97698.92;1539777;93;28051;-64
2021/12/06 04:45:14;;;;;;;;;;;;;;;0.98;83.62;97698.67;1539775;93;25677;-63
2021/12/06 04:47:41;;;;;;;;;;;;;;;0.97;83.45;97707.83;1539760;92;27480;-64
2021/12/06 04:50:10;;;;;;;;;;;;;;;0.96;83.66;97711.61;1539809;92;25512;-64
2021/12/06 04:52:37;;;;;;;;;;;;;;;0.92;83.91;97714.60;1540069;92;25668;-64
2021/12/06 04:55:06;;;;;;;;;;;;;;;0.92;83.73;97724.83;1539736;92;25684;-64
2021/12/06 04:57:36;;;;;;;;;;;;;;;0.91;83.75;97735.36;1539809;93;25480;-64
2021/12/06 05:00:09;;;;;;;;;;;;;;;0.97;83.52;97738.32;1539899;92;27504;-63
2021/12/06 05:02:37;;;;;;;;;;;;;;;1.03;83.65;97751.25;1539917;92;25742;-63
2021/12/06 05:05:07;;;;;;;;;;;;;;;1.05;83.35;97747.75;1539840;93;25495;-63
2021/12/06 05:07:42;;;;;;;;;;;;;;;1.03;83.49;97751.25;1540039;92;26629;-63
2021/12/06 05:10:10;;;;;;;;;;;;;;;1.03;83.45;97753.95;1539802;93;25692;-64
2021/12/06 05:12:36;;;;;;;;;;;;;;;1.04;83.59;97762.33;1539730;93;27469;-63
2021/12/06 05:15:03;;;;;;;;;;;;;;;1.05;83.41;97753.67;1539765;93;25693;-64
2021/12/06 05:17:30;;;;;;;;;;;;;;;0.97;83.49;97741.02;1539994;93;25672;-64
2021/12/06 05:19:56;;;;;;;;;;;;;;;0.95;83.60;97746.43;1539741;93;25760;-64
2021/12/06 05:22:24;;;;;;;;;;;;;;;0.95;83.70;97758.57;1539779;93;25710;-64
2021/12/06 05:24:52;;;;;;;;;;;;;;;0.92;83.71;97756.41;1539772;92;27518;-64
2021/12/06 05:27:26;;;;;;;;;;;;;;;0.89;83.75;97750.22;1539768;92;25776;-64
2021/12/06 05:29:51;;;;;;;;;;;;;;;0.89;83.89;97760.45;1539288;93;25720;-64
2021/12/06 05:32:17;;;;;;;;;;;;;;;0.89;83.85;97766.40;1539723;93;25671;-64
2021/12/06 05:34:44;;;;;;;;;;;;;;;0.93;83.85;97770.16;1539866;92;25530;-64
2021/12/06 05:37:12;;;;;;;;;;;;;;;0.93;83.71;97783.13;1539704;92;27483;-64
2021/12/06 05:39:39;;;;;;;;;;;;;;;0.96;83.76;97786.62;1540669;92;27323;-64
2021/12/06 05:42:09;;;;;;;;;;;;;;;0.92;83.76;97785.53;1548328;92;25647;-64
2021/12/06 05:44:36;;;;;;;;;;;;;;;0.88;83.76;97792.55;1547056;92;25776;-64
2021/12/06 05:47:02;;;;;;;;;;;;;;;0.85;83.83;97792.56;1548371;92;25450;-64
2021/12/06 05:49:29;;;;;;;;;;;;;;;0.81;83.91;97794.17;1549149;91;27462;-64
2021/12/06 05:51:56;;;;;;;;;;;;;;;0.83;83.97;97789.85;1548142;92;25549;-64
2021/12/06 05:54:22;;;;;;;;;;;;;;;0.84;83.79;97784.19;1548304;92;25481;-64
2021/12/06 05:56:48;;;;;;;;;;;;;;;0.87;83.82;97788.25;1547991;92;25841;-64
2021/12/06 05:59:15;;;;;;;;;;;;;;;0.93;83.76;97791.75;1548423;92;25712;-64
2021/12/06 06:01:41;;;;;;;;;;;;;;;0.92;83.53;97788.23;1548070;91;27482;-64
2021/12/06 06:04:08;;;;;;;;;;;;;;;0.96;83.62;97789.32;1548211;92;25768;-64
2021/12/06 06:06:36;;;;;;;;;;;;;;;0.99;83.54;97794.17;1581784;90;25434;-64
2021/12/06 06:09:05;;;;;;;;;;;;;;;1.02;83.43;97800.91;1565253;91;26352;-64
2021/12/06 06:11:34;;;;;;;;;;;;;;;1.00;83.53;97805.23;1571038;88;25528;-63
2021/12/06 06:13:59;;;;;;;;;;;;;;;0.95;83.53;97807.92;1598372;89;26006;-63
2021/12/06 06:16:30;;;;;;;;;;;;;;;0.90;83.42;97817.91;1571893;91;25718;-63
2021/12/06 06:18:53;;;;;;;;;;;;;;;0.86;83.64;97815.76;1598307;89;25660;-64
2021/12/06 06:21:19;;;;;;;;;;;;;;;0.89;83.69;97817.09;1572104;91;27060;-64
2021/12/06 06:23:45;;;;;;;;;;;;;;;0.90;83.55;97821.43;1598114;89;25652;-64
2021/12/06 06:26:12;;;;;;;;;;;;;;;0.89;83.69;97817.09;1571995;91;27454;-64
2021/12/06 06:28:38;;;;;;;;;;;;;;;0.93;83.47;97818.72;1598002;89;25738;-64
2021/12/06 06:31:04;;;;;;;;;;;;;;;0.92;83.55;97812.51;1571976;91;25680;-64
2021/12/06 06:33:30;;;;;;;;;;;;;;;0.96;83.49;97811.44;1598273;89;26438;-64
2021/12/06 06:35:56;;;;;;;;;;;;;;;0.98;83.42;97807.94;1571967;91;25457;-64
2021/12/06 06:38:23;;;;;;;;;;;;;;;0.96;83.33;97819.53;1598190;89;27478;-64
2021/12/06 06:40:50;;;;;;;;;;;;;;;0.91;83.49;97813.59;1572844;91;25902;-64
2021/12/06 06:43:17;;;;;;;;;;;;;;;0.91;83.67;97823.56;1600334;89;25270;-64
2021/12/06 06:45:43;;;;;;;;;;;;;;;0.91;83.66;97836.53;1600427;89;25778;-64
2021/12/06 06:48:09;;;;;;;;;;;;;;;0.89;83.72;97830.58;1602068;89;25693;-64
2021/12/06 06:50:35;;;;;;;;;;;;;;;0.90;83.68;97843.02;1602210;89;27398;-64
2021/12/06 06:53:02;;;;;;;;;;;;;;;0.90;83.57;97840.84;1601952;89;25655;-64
2021/12/06 06:55:28;;;;;;;;;;;;;;;0.93;83.62;97841.12;1602776;89;25487;-64
2021/12/06 06:57:54;;;;;;;;;;;;;;;0.97;83.51;97854.33;1602403;89;25713;-64
2021/12/06 07:00:24;;;;;;;;;;;;;;;1.00;83.31;97860.54;1602115;89;25691;-64
2021/12/06 07:02:50;;;;;;;;;;;;;;;1.00;83.26;97863.23;1601080;89;27377;-64
2021/12/06 07:05:17;;;;;;;;;;;;;;;1.05;83.37;97873.22;1602257;89;25636;-64
2021/12/06 07:07:44;;;;;;;;;;;;;;;1.03;83.04;97878.62;1602407;89;25681;-64
2021/12/06 07:10:11;;;;;;;;;;;;;;;1.02;83.15;97884.55;1602332;89;25800;-64
2021/12/06 07:12:44;;;;;;;;;;;;;;;0.96;82.89;97877.53;1602446;89;25941;-64
2021/12/06 07:15:06;;;;;;;;;;;;;;;0.85;83.10;97878.89;1602143;89;26222;-64
2021/12/06 07:17:32;;;;;;;;;;;;;;;0.79;83.13;97872.40;1602012;89;25640;-63
2021/12/06 07:20:00;;;;;;;;;;;;;;;0.75;83.27;97879.67;1602185;89;25696;-63
2021/12/06 07:22:26;;;;;;;;;;;;;;;0.81;83.48;97881.05;1602153;89;25729;-63
2021/12/06 07:24:52;;;;;;;;;;;;;;;0.85;83.44;97885.62;1602132;89;25690;-63
2021/12/06 07:27:18;;;;;;;;;;;;;;;0.91;83.42;97888.31;1601997;89;27461;-63
2021/12/06 07:29:44;;;;;;;;;;;;;;;0.90;83.33;97888.88;1602063;89;25696;-63
2021/12/06 07:32:10;;;;;;;;;;;;;;;0.86;83.14;97898.03;1602153;89;25639;-63
2021/12/06 07:34:36;;;;;;;;;;;;;;;0.85;83.52;97888.86;1602191;89;25775;-63
2021/12/06 07:37:04;;;;;;;;;;;;;;;0.82;83.61;97893.44;1602645;89;25612;-63
2021/12/06 07:39:30;;;;;;;;;;;;;;;0.80;83.64;97889.66;1602586;89;27599;-63
2021/12/06 07:41:56;;;;;;;;;;;;;;;0.84;83.78;97886.69;1602199;89;26142;-63
2021/12/06 07:44:23;;;;;;;;;;;;;;;0.84;83.74;97879.16;1602264;89;25447;-63
2021/12/06 07:46:51;;;;;;;;;;;;;;;0.84;83.71;97877.81;1602401;89;25836;-62
2021/12/06 07:49:17;;;;;;;;;;;;;;;0.86;83.77;97882.37;1602402;89;25499;-63
2021/12/06 07:51:43;;;;;;;;;;;;;;;0.93;83.74;97880.77;1602458;89;27754;-62
2021/12/06 07:54:10;;;;;;;;;;;;;;;0.95;83.49;97882.11;1602187;89;27350;-63
2021/12/06 07:56:36;;;;;;;;;;;;;;;1.00;83.53;97878.08;1602463;89;25696;-62
2021/12/06 07:59:03;;;;;;;;;;;;;;;1.06;83.49;97876.73;1602265;89;25811;-62
2021/12/06 08:01:28;;;;;;;;;;;;;;;1.09;83.30;97878.34;1602588;89;25680;-62
2021/12/06 08:03:54;;;;;;;;;;;;;;;1.15;83.49;97872.39;1602175;89;27492;-63
2021/12/06 08:06:21;;;;;;;;;;;;;;;1.20;83.30;97883.20;1602590;89;25794;-62
2021/12/06 08:08:47;;;;;;;;;;;;;;;1.16;83.28;97878.08;1602482;89;25511;-62
2021/12/06 08:11:16;;;;;;;;;;;;;;;1.17;83.25;97889.66;1602238;89;25778;-62
2021/12/06 08:13:50;;;;;;;;;;;;;;;1.16;83.32;97893.45;1602526;89;25692;-62
2021/12/06 08:16:19;;;;;;;;;;;;;;;1.13;83.16;97896.16;1602198;89;26922;-63
2021/12/06 08:18:46;;;;;;;;;;;;;;;1.11;83.45;97894.27;1602382;89;25941;-63
2021/12/06 08:21:13;;;;;;;;;;;;;;;1.13;83.33;97898.30;1602299;89;25657;-63
2021/12/06 08:23:40;;;;;;;;;;;;;;;1.12;83.36;97893.99;1602257;89;25756;-62
2021/12/06 08:26:08;;;;;;;;;;;;;;;1.11;83.45;97899.66;1602293;89;25492;-62
2021/12/06 08:28:35;;;;;;;;;;;;;;;1.15;83.46;97898.03;1602296;89;27483;-63
2021/12/06 08:31:05;;;;;;;;;;;;;;;1.11;83.36;97907.75;1602167;89;25526;-62
2021/12/06 08:33:32;;;;;;;;;;;;;;;1.15;83.47;97907.48;1602146;89;25688;-63
2021/12/06 08:35:58;;;;;;;;;;;;;;;1.20;83.34;97906.14;1602146;89;25766;-63
2021/12/06 08:38:27;;;;;;;;;;;;;;;1.23;83.55;97902.90;1602405;89;25664;-63
2021/12/06 08:40:54;;;;;;;;;;;;;;;1.25;83.30;97909.38;1602197;89;27526;-63
2021/12/06 08:43:21;;;;;;;;;;;;;;;1.27;83.34;97916.67;1602422;89;25628;-63
2021/12/06 08:45:59;;;;;;;;;;;;;;;1.30;83.34;97920.71;1602243;89;25484;-63
2021/12/06 08:48:28;;;;;;;;;;;;;;;1.24;83.06;97924.75;1601213;89;27853;-63
2021/12/06 08:50:55;;;;;;;;;;;;;;;1.22;83.09;97923.41;1602256;89;25446;-63
2021/12/06 08:53:22;;;;;;;;;;;;;;;1.17;83.19;97924.22;1602428;89;27478;-63
2021/12/06 08:55:49;;;;;;;;;;;;;;;1.18;83.38;97929.88;1602335;89;25728;-63
2021/12/06 08:58:16;;;;;;;;;;;;;;;1.18;83.09;97931.79;1602183;89;25753;-63
2021/12/06 09:00:43;;;;;;;;;;;;;;;1.15;82.91;97937.16;1602329;89;25879;-63
2021/12/06 09:03:09;;;;;;;;;;;;;;;1.19;83.22;97936.91;1602426;89;25773;-63
2021/12/06 09:05:37;;;;;;;;;;;;;;;1.21;82.99;97936.09;1602269;89;29603;-63
2021/12/06 09:08:04;;;;;;;;;;;;;;;1.18;83.14;97939.88;1602288;89;25776;-62
2021/12/06 09:10:30;;;;;;;;;;;;;;;1.20;83.26;97945.27;1602234;89;25708;-62
2021/12/06 09:12:57;;;;;;;;;;;;;;;1.23;83.17;97947.96;1627688;86;26426;-63
2021/12/06 09:15:24;;;;;;;;;;;;;;;1.24;82.97;97951.74;1625670;86;25697;-63
2021/12/06 09:17:54;;;;;;;;;;;;;;;1.22;83.05;97955.27;1608758;87;27476;-63
2021/12/06 09:20:23;;;;;;;;;;;;;;;1.15;83.25;97958.75;1602341;89;25475;-63
2021/12/06 09:22:50;;;;;;;;;;;;;;;1.08;83.29;97955.52;1602395;89;25517;-63
2021/12/06 09:25:18;;;;;;;;;;;;;;;1.04;83.41;97952.56;1602255;89;25956;-63
2021/12/06 09:27:46;;;;;;;;;;;;;;;1.05;83.61;97955.52;1602500;89;25592;-63
2021/12/06 09:30:16;;;;;;;;;;;;;;;1.09;83.41;97953.08;1613716;88;28187;-65
2021/12/06 09:32:43;;;;;;;;;;;;;;;1.12;83.39;97949.84;1628369;88;25791;-66
2021/12/06 09:35:14;;;;;;;;;;;;;;;1.20;83.51;97953.90;1627559;86;25739;-65
2021/12/06 09:37:39;;;;;;;;;;;;;;;1.24;83.49;97953.66;1625954;86;25811;-66
2021/12/06 09:40:08;;;;;;;;;;;;;;;1.28;83.30;97965.52;1646903;87;25742;-66
2021/12/06 09:42:36;;;;;;;;;;;;;;;1.29;83.02;97960.38;1646717;87;27461;-65
2021/12/06 09:45:07;;;;;;;;;;;;;;;1.25;83.26;97958.78;1637098;86;25879;-65
2021/12/06 09:47:34;;;;;;;;;;;;;;;1.27;83.06;97958.52;1617381;86;25689;-65
2021/12/06 09:50:00;;;;;;;;;;;;;;;1.27;83.27;97959.86;1614768;87;25800;-65
2021/12/06 09:52:26;;;;;;;;;;;;;;;1.25;83.13;97952.56;1600203;89;25461;-65
2021/12/06 09:54:53;;;;;;;;;;;;;;;1.21;82.97;97960.94;1600173;89;27346;-65
2021/12/06 09:57:19;;;;;;;;;;;;;;;1.17;83.06;97960.66;1600431;89;25465;-65
2021/12/06 09:59:46;;;;;;;;;;;;;;;1.14;83.04;97962.54;1600112;89;25740;-65
2021/12/06 10:02:15;;;;;;;;;;;;;;;1.13;82.97;97960.93;1600457;89;25920;-65
2021/12/06 10:04:47;;;;;;;;;;;;;;;1.14;82.83;97959.84;1600101;89;25448;-65
2021/12/06 10:07:13;;;;;;;;;;;;;;;1.14;82.82;97961.19;1600446;89;25817;-65
2021/12/06 10:09:41;;;;;;;;;;;;;;;1.15;82.81;97962.02;1600418;89;25519;-65
2021/12/06 10:12:08;;;;;;;;;;;;;;;1.18;83.18;97959.56;1600230;89;25639;-64
2021/12/06 10:14:36;;;;;;;;;;;;;;;1.20;82.92;97954.72;1600237;89;25628;-64
2021/12/06 10:17:04;;;;;;;;;;;;;;;1.24;83.08;97953.09;1600361;89;25681;-64
2021/12/06 10:19:31;;;;;;;;;;;;;;;1.34;83.20;97955.53;1600458;89;27408;-64
2021/12/06 10:21:57;;;;;;;;;;;;;;;1.41;82.94;97952.56;1600058;89;25636;-65
2021/12/06 10:24:26;;;;;;;;;;;;;;;1.42;82.61;97950.13;1600363;89;25632;-66
2021/12/06 10:27:05;;;;;;;;;;;;;;;1.44;82.67;97947.98;1600591;89;26368;-64
2021/12/06 10:29:38;;;;;;;;;;;;;;;1.52;82.84;97946.62;1600172;89;25634;-64
2021/12/06 10:32:13;;;;;;;;;;;;;;;1.61;82.44;97943.09;1596870;89;27487;-64
2021/12/06 10:34:52;;;;;;;;;;;;;;;1.68;82.48;97941.47;1599658;89;25523;-64
2021/12/06 10:37:31;;;;;;;;;;;;;;;1.72;81.54;97942.53;1600576;89;25590;-65
2021/12/06 10:39:58;;;;;;;;;;;;;;;1.73;81.60;97948.19;1600417;89;25972;-65
2021/12/06 10:42:33;;;;;;;;;;;;;;;1.75;81.71;97950.09;1601302;89;25453;-64
2021/12/06 10:45:14;;;;;;;;;;;;;;;1.83;81.74;97944.67;1601862;89;27496;-64
2021/12/06 10:47:41;;;;;;;;;;;;;;;1.89;81.54;97946.81;1602434;89;25738;-63
2021/12/06 10:50:11;;;;;;;;;;;;;;;1.96;81.18;97951.95;1602224;89;25589;-63
2021/12/06 10:52:52;;;;;;;;;;;;;;;1.85;80.35;97945.22;1601720;89;25255;-63
2021/12/06 10:55:20;;;;;;;;;;;;;;;1.88;81.21;97954.66;1601129;89;25488;-64
2021/12/06 10:57:52;;;;;;;;;;;;;;;1.88;80.34;97954.66;1602440;89;27412;-64
2021/12/06 11:00:37;;;;;;;;;;;;;;;1.90;81.38;97955.18;1601716;89;25493;-64
2021/12/06 11:03:04;;;;;;;;;;;;;;;1.94;80.82;97954.92;1602241;89;25756;-63
2021/12/06 11:05:33;;;;;;;;;;;;;;;1.99;80.84;97951.40;1602064;89;25774;-64
2021/12/06 11:08:10;;;;;;;;;;;;;;;1.93;79.79;97949.23;1602504;89;25628;-64
2021/12/06 11:10:43;;;;;;;;;;;;;;;1.93;80.27;97960.59;1602338;89;27392;-64
2021/12/06 11:13:23;;;;;;;;;;;;;;;1.92;80.11;97957.08;1602110;89;25661;-64
2021/12/06 11:15:59;;;;;;;;;;;;;;;1.91;80.51;97957.35;1600066;89;25731;-64
2021/12/06 11:18:34;;;;;;;;;;;;;;;1.84;79.99;97961.14;1602505;89;25769;-64
2021/12/06 11:21:01;;;;;;;;;;;;;;;1.85;80.58;97964.66;1602121;89;25461;-64
2021/12/06 11:23:28;;;;;;;;;;;;;;;1.90;80.40;97959.80;1602170;89;27527;-64
2021/12/06 11:25:59;;;;;;;;;;;;;;;1.95;80.32;97961.12;1602418;89;25715;-64
2021/12/06 11:28:31;;;;;;;;;;;;;;;1.91;79.65;97966.81;1601720;89;25442;-65
2021/12/06 11:31:02;;;;;;;;;;;;;;;1.86;79.52;97968.98;1602408;89;25653;-65
2021/12/06 11:33:31;;;;;;;;;;;;;;;1.80;79.86;97969.53;1602273;89;25641;-64
2021/12/06 11:35:57;;;;;;;;;;;;;;;1.82;80.21;97964.68;1602465;89;27491;-64
2021/12/06 12:21:41;;;;;;;38.73;19.20;;;;;;;1.14;80.70;97977.39;1840932;78;25522;-59
2021/12/06 12:24:09;;;;;;;42.08;19.57;;;;;;;0.96;80.74;97981.41;1815948;79;25476;-59
2021/12/06 12:26:36;;;;;;;37.42;14.70;;;;;;;0.89;81.01;97983.00;1815008;78;27358;-60
2021/12/06 12:29:12;;;;;;;45.50;21.25;;;;;;;0.82;81.27;97984.62;1816021;79;25765;-60
2021/12/06 12:31:32;;;;;;;45.35;21.07;;;;;;;0.81;81.59;97982.19;1812301;79;26487;-60
2021/12/06 12:33:59;;;;;;;34.95;15.95;;;;;;;0.85;81.67;97988.14;1815961;79;25653;-59
2021/12/06 12:36:27;;;;;;;38.65;18.02;;;;;;;0.87;81.80;97990.02;1815609;79;25554;-59
2021/12/06 12:38:56;;;;;;;26.68;13.18;;;;;;;0.89;81.61;97993.00;1815997;78;27425;-59
2021/12/06 12:41:28;;;;;;;30.37;14.55;;;;;;;0.88;81.17;97997.58;1815950;78;25482;-59
2021/12/06 12:44:05;;;;;;;29.05;13.55;;;;;;;0.86;81.58;97992.45;1815647;79;25855;-60
2021/12/06 12:46:39;;;;;;;24.00;12.00;;;;;;;0.85;81.64;97990.84;1815163;79;25693;-59
2021/12/06 12:49:14;;;;;;;29.85;14.63;;;;;;;0.82;81.57;97996.77;1815911;78;25721;-59
2021/12/06 12:51:57;;;;;;;22.98;10.65;;;;;;;0.79;81.60;97997.82;1815183;79;28015;-59
2021/12/06 12:54:28;;;;;;;23.67;12.50;;;;;;;0.75;81.51;97992.95;1815958;78;25582;-61
2021/12/06 12:57:03;;;;;;;26.33;14.10;;;;;;;0.74;81.50;98000.78;1816044;79;25460;-59
2021/12/06 12:59:38;;;;;;;30.23;14.63;;;;;;;0.77;81.55;97999.44;1815702;79;25610;-59
2021/12/06 13:02:24;;;;;;;31.87;13.03;;;;;;;0.77;81.45;98006.73;1815574;79;25572;-60
2021/12/06 13:05:10;;;;;;;26.02;12.73;;;;;;;0.77;81.44;98010.78;1815766;78;25808;-60
2021/12/06 13:07:41;;;;;;;29.18;12.43;;;;;;;0.75;81.50;98004.30;1815519;79;25620;-60
2021/12/06 13:10:32;;;;;;;28.92;13.88;;;;;;;0.70;81.57;98001.58;1808491;79;25682;-60
2021/12/06 13:13:24;;;;;;;43.98;19.70;;;;;;;0.66;81.73;98008.58;1816051;79;25545;-59
2021/12/06 13:16:04;;;;;;;38.80;21.07;;;;;;;0.65;81.93;98011.81;1814804;79;25650;-59
2021/12/06 13:19:04;;;;;;;44.45;24.35;;;;;;;0.70;81.77;98016.41;1815283;79;26060;-60
2021/12/06 13:21:31;;;;;;;73.95;33.15;;;;;;;0.65;81.59;98016.38;1805711;79;25659;-59
2021/12/06 13:24:16;;;;;;;;;;;;;;;0.65;81.56;98017.20;1807539;79;25405;-59
2021/12/06 13:26:48;;;;;;;88.47;31.90;;;;;;;0.71;81.75;98018.84;1805282;79;25572;-59
2021/12/06 13:29:23;;;;;;;56.25;23.30;;;;;;;0.75;81.88;98025.32;1803854;79;25565;-59
2021/12/06 13:31:52;;;;;;;37.93;21.33;;;;;;;0.73;81.56;98027.48;1804998;79;28036;-59
2021/12/06 13:34:26;;;;;;;44.98;20.97;;;;;;;0.67;81.49;98032.59;1804095;79;25732;-59
2021/12/06 13:37:03;;;;;;;66.80;29.87;;;;;;;0.61;81.55;98039.83;1803237;79;25635;-59
2021/12/06 13:39:41;;;;;;;61.73;31.30;;;;;;;0.59;81.72;98037.13;1804377;79;25649;-59
2021/12/06 13:42:12;;;;;;;77.20;40.52;;;;;;;0.54;81.49;98032.52;1804666;78;25600;-59
2021/12/06 13:44:56;;;;;;;76.35;37.23;;;;;;;0.56;81.64;98033.61;1804641;79;27537;-59
2021/12/06 13:47:26;;;;;;;67.78;31.30;;;;;;;0.58;81.71;98034.17;1803964;79;25748;-59
2021/12/06 13:50:04;;;;;;;66.92;32.70;;;;;;;0.61;81.76;98030.39;1804447;79;25647;-59